sensor_id;sensor_type;location;lat;lon;timestamp;P1;durP1;ratioP1;P2;durP2;ratioP2
21330;SDS011;10824;51.632;4.950;2022-11-20T00:00:23;7.53;;;4.00;;
21330;SDS011;10824;51.632;4.950;2022-11-20T00:02:50;11.98;;;4.40;;
21330;SDS011;10824;51.632;4.950;2022-11-20T00:05:17;9.45;;;4.68;;
21330;SDS011;10824;51.632;4.950;2022-11-20T00:07:44;8.23;;;3.60;;
21330;SDS011;10824;51.632;4.950;2022-11-20T00:10:11;13.20;;;4.38;;
21330;SDS011;10824;51.632;4.950;2022-11-20T00:12:38;8.25;;;4.50;;
21330;SDS011;10824;51.632;4.950;2022-11-20T00:15:05;7.95;;;4.82;;
21330;SDS011;10824;51.632;4.950;2022-11-20T00:17:33;8.13;;;4.45;;
21330;SDS011;10824;51.632;4.950;2022-11-20T00:20:00;7.22;;;3.83;;
21330;SDS011;10824;51.632;4.950;2022-11-20T00:22:27;7.97;;;4.53;;
21330;SDS011;10824;51.632;4.950;2022-11-20T00:24:54;11.80;;;4.90;;
21330;SDS011;10824;51.632;4.950;2022-11-20T00:27:23;7.43;;;3.92;;
21330;SDS011;10824;51.632;4.950;2022-11-20T00:29:50;9.15;;;5.32;;
21330;SDS011;10824;51.632;4.950;2022-11-20T00:32:17;9.70;;;4.03;;
21330;SDS011;10824;51.632;4.950;2022-11-20T00:34:44;11.32;;;5.22;;
21330;SDS011;10824;51.632;4.950;2022-11-20T00:37:11;10.05;;;6.28;;
21330;SDS011;10824;51.632;4.950;2022-11-20T00:39:38;6.97;;;3.83;;
21330;SDS011;10824;51.632;4.950;2022-11-20T00:42:05;10.13;;;4.15;;
21330;SDS011;10824;51.632;4.950;2022-11-20T00:44:32;9.40;;;4.45;;
21330;SDS011;10824;51.632;4.950;2022-11-20T00:46:58;8.95;;;4.45;;
21330;SDS011;10824;51.632;4.950;2022-11-20T00:49:25;7.78;;;4.10;;
21330;SDS011;10824;51.632;4.950;2022-11-20T00:51:52;7.13;;;3.45;;
21330;SDS011;10824;51.632;4.950;2022-11-20T00:54:20;6.88;;;4.47;;
21330;SDS011;10824;51.632;4.950;2022-11-20T00:56:46;9.35;;;4.05;;
21330;SDS011;10824;51.632;4.950;2022-11-20T00:59:13;7.10;;;4.68;;
21330;SDS011;10824;51.632;4.950;2022-11-20T01:01:40;8.02;;;4.45;;
21330;SDS011;10824;51.632;4.950;2022-11-20T01:04:08;9.93;;;4.07;;
21330;SDS011;10824;51.632;4.950;2022-11-20T01:06:35;11.05;;;4.82;;
21330;SDS011;10824;51.632;4.950;2022-11-20T01:09:10;6.72;;;3.35;;
21330;SDS011;10824;51.632;4.950;2022-11-20T01:11:40;9.82;;;4.30;;
21330;SDS011;10824;51.632;4.950;2022-11-20T01:14:13;5.85;;;3.65;;
21330;SDS011;10824;51.632;4.950;2022-11-20T01:16:46;7.60;;;4.38;;
21330;SDS011;10824;51.632;4.950;2022-11-20T01:19:18;7.45;;;4.50;;
21330;SDS011;10824;51.632;4.950;2022-11-20T01:21:48;8.82;;;4.78;;
21330;SDS011;10824;51.632;4.950;2022-11-20T01:24:18;10.80;;;5.05;;
21330;SDS011;10824;51.632;4.950;2022-11-20T01:26:47;10.55;;;5.07;;
21330;SDS011;10824;51.632;4.950;2022-11-20T01:29:17;8.57;;;4.03;;
21330;SDS011;10824;51.632;4.950;2022-11-20T01:31:49;10.20;;;4.93;;
21330;SDS011;10824;51.632;4.950;2022-11-20T01:34:17;10.63;;;5.70;;
21330;SDS011;10824;51.632;4.950;2022-11-20T01:36:45;9.90;;;4.95;;
21330;SDS011;10824;51.632;4.950;2022-11-20T01:39:14;15.65;;;5.75;;
21330;SDS011;10824;51.632;4.950;2022-11-20T01:41:43;8.30;;;3.45;;
21330;SDS011;10824;51.632;4.950;2022-11-20T01:44:51;10.88;;;6.80;;
21330;SDS011;10824;51.632;4.950;2022-11-20T01:49:58;11.15;;;5.47;;
21330;SDS011;10824;51.632;4.950;2022-11-20T01:52:36;7.32;;;4.65;;
21330;SDS011;10824;51.632;4.950;2022-11-20T01:55:09;7.78;;;3.95;;
21330;SDS011;10824;51.632;4.950;2022-11-20T01:57:41;10.98;;;5.18;;
21330;SDS011;10824;51.632;4.950;2022-11-20T02:00:11;12.25;;;5.35;;
21330;SDS011;10824;51.632;4.950;2022-11-20T02:03:02;12.43;;;5.88;;
21330;SDS011;10824;51.632;4.950;2022-11-20T02:08:18;10.43;;;4.80;;
21330;SDS011;10824;51.632;4.950;2022-11-20T02:10:47;6.72;;;3.80;;
21330;SDS011;10824;51.632;4.950;2022-11-20T02:13:14;7.15;;;4.00;;
21330;SDS011;10824;51.632;4.950;2022-11-20T02:16:01;10.43;;;4.38;;
21330;SDS011;10824;51.632;4.950;2022-11-20T02:18:29;7.85;;;3.17;;
21330;SDS011;10824;51.632;4.950;2022-11-20T02:20:59;9.70;;;4.63;;
21330;SDS011;10824;51.632;4.950;2022-11-20T02:23:33;6.60;;;3.33;;
21330;SDS011;10824;51.632;4.950;2022-11-20T02:26:01;6.82;;;5.00;;
21330;SDS011;10824;51.632;4.950;2022-11-20T02:28:32;9.50;;;4.50;;
21330;SDS011;10824;51.632;4.950;2022-11-20T02:30:59;9.68;;;5.18;;
21330;SDS011;10824;51.632;4.950;2022-11-20T02:33:27;8.48;;;5.47;;
21330;SDS011;10824;51.632;4.950;2022-11-20T02:35:54;10.43;;;4.38;;
21330;SDS011;10824;51.632;4.950;2022-11-20T02:38:20;12.65;;;4.55;;
21330;SDS011;10824;51.632;4.950;2022-11-20T02:40:47;9.07;;;5.15;;
21330;SDS011;10824;51.632;4.950;2022-11-20T02:43:20;12.93;;;6.30;;
21330;SDS011;10824;51.632;4.950;2022-11-20T02:45:48;7.43;;;3.75;;
21330;SDS011;10824;51.632;4.950;2022-11-20T02:48:16;12.85;;;5.40;;
21330;SDS011;10824;51.632;4.950;2022-11-20T02:50:43;10.10;;;5.78;;
21330;SDS011;10824;51.632;4.950;2022-11-20T02:53:10;10.05;;;5.90;;
21330;SDS011;10824;51.632;4.950;2022-11-20T02:55:36;8.02;;;5.22;;
21330;SDS011;10824;51.632;4.950;2022-11-20T02:58:04;9.73;;;6.00;;
21330;SDS011;10824;51.632;4.950;2022-11-20T03:00:31;6.32;;;3.97;;
21330;SDS011;10824;51.632;4.950;2022-11-20T03:02:58;9.63;;;4.63;;
21330;SDS011;10824;51.632;4.950;2022-11-20T03:05:25;8.93;;;4.32;;
21330;SDS011;10824;51.632;4.950;2022-11-20T03:07:52;11.82;;;5.80;;
21330;SDS011;10824;51.632;4.950;2022-11-20T03:10:19;8.27;;;5.03;;
21330;SDS011;10824;51.632;4.950;2022-11-20T03:12:46;11.48;;;4.45;;
21330;SDS011;10824;51.632;4.950;2022-11-20T03:15:13;9.68;;;5.47;;
21330;SDS011;10824;51.632;4.950;2022-11-20T03:17:40;10.35;;;4.95;;
21330;SDS011;10824;51.632;4.950;2022-11-20T03:20:07;12.85;;;5.38;;
21330;SDS011;10824;51.632;4.950;2022-11-20T03:22:35;8.13;;;4.15;;
21330;SDS011;10824;51.632;4.950;2022-11-20T03:25:02;12.65;;;5.00;;
21330;SDS011;10824;51.632;4.950;2022-11-20T03:27:33;11.65;;;4.53;;
21330;SDS011;10824;51.632;4.950;2022-11-20T03:30:01;8.18;;;4.68;;
21330;SDS011;10824;51.632;4.950;2022-11-20T03:32:27;9.80;;;4.82;;
21330;SDS011;10824;51.632;4.950;2022-11-20T03:34:54;11.73;;;5.82;;
21330;SDS011;10824;51.632;4.950;2022-11-20T03:37:21;9.25;;;4.88;;
21330;SDS011;10824;51.632;4.950;2022-11-20T03:39:49;6.15;;;3.25;;
21330;SDS011;10824;51.632;4.950;2022-11-20T03:42:16;7.97;;;4.80;;
21330;SDS011;10824;51.632;4.950;2022-11-20T03:45:01;6.50;;;3.70;;
21330;SDS011;10824;51.632;4.950;2022-11-20T03:47:28;9.73;;;5.68;;
21330;SDS011;10824;51.632;4.950;2022-11-20T03:49:55;10.15;;;5.45;;
21330;SDS011;10824;51.632;4.950;2022-11-20T03:52:22;6.90;;;3.97;;
21330;SDS011;10824;51.632;4.950;2022-11-20T03:54:49;6.63;;;4.00;;
21330;SDS011;10824;51.632;4.950;2022-11-20T03:57:16;13.43;;;4.90;;
21330;SDS011;10824;51.632;4.950;2022-11-20T03:59:43;7.20;;;4.38;;
21330;SDS011;10824;51.632;4.950;2022-11-20T04:02:10;5.95;;;3.70;;
21330;SDS011;10824;51.632;4.950;2022-11-20T04:04:37;7.82;;;5.13;;
21330;SDS011;10824;51.632;4.950;2022-11-20T04:07:04;11.73;;;5.93;;
21330;SDS011;10824;51.632;4.950;2022-11-20T04:09:31;8.95;;;5.25;;
21330;SDS011;10824;51.632;4.950;2022-11-20T04:11:58;8.52;;;4.78;;
21330;SDS011;10824;51.632;4.950;2022-11-20T04:14:25;7.38;;;3.50;;
21330;SDS011;10824;51.632;4.950;2022-11-20T04:16:52;9.00;;;5.22;;
21330;SDS011;10824;51.632;4.950;2022-11-20T04:19:19;8.73;;;5.18;;
21330;SDS011;10824;51.632;4.950;2022-11-20T04:21:46;9.20;;;4.90;;
21330;SDS011;10824;51.632;4.950;2022-11-20T04:24:13;6.50;;;4.20;;
21330;SDS011;10824;51.632;4.950;2022-11-20T04:26:40;11.07;;;4.78;;
21330;SDS011;10824;51.632;4.950;2022-11-20T04:29:10;10.10;;;4.57;;
21330;SDS011;10824;51.632;4.950;2022-11-20T04:31:38;12.52;;;4.43;;
21330;SDS011;10824;51.632;4.950;2022-11-20T04:34:05;7.53;;;4.43;;
21330;SDS011;10824;51.632;4.950;2022-11-20T04:36:33;6.35;;;3.97;;
21330;SDS011;10824;51.632;4.950;2022-11-20T04:39:02;9.27;;;5.18;;
21330;SDS011;10824;51.632;4.950;2022-11-20T04:41:32;9.83;;;5.67;;
21330;SDS011;10824;51.632;4.950;2022-11-20T04:44:01;5.93;;;3.47;;
21330;SDS011;10824;51.632;4.950;2022-11-20T04:46:30;13.45;;;6.25;;
21330;SDS011;10824;51.632;4.950;2022-11-20T04:48:59;6.95;;;4.15;;
21330;SDS011;10824;51.632;4.950;2022-11-20T04:51:27;4.93;;;3.10;;
21330;SDS011;10824;51.632;4.950;2022-11-20T04:53:54;8.07;;;4.88;;
21330;SDS011;10824;51.632;4.950;2022-11-20T04:56:22;8.07;;;3.78;;
21330;SDS011;10824;51.632;4.950;2022-11-20T04:58:49;8.27;;;3.92;;
21330;SDS011;10824;51.632;4.950;2022-11-20T05:01:17;8.35;;;3.85;;
21330;SDS011;10824;51.632;4.950;2022-11-20T05:03:46;10.98;;;5.45;;
21330;SDS011;10824;51.632;4.950;2022-11-20T05:06:14;13.07;;;5.70;;
21330;SDS011;10824;51.632;4.950;2022-11-20T05:08:42;8.70;;;4.82;;
21330;SDS011;10824;51.632;4.950;2022-11-20T05:11:10;8.98;;;5.03;;
21330;SDS011;10824;51.632;4.950;2022-11-20T05:13:39;7.30;;;4.60;;
21330;SDS011;10824;51.632;4.950;2022-11-20T05:16:08;8.68;;;4.22;;
21330;SDS011;10824;51.632;4.950;2022-11-20T05:18:39;9.27;;;5.00;;
21330;SDS011;10824;51.632;4.950;2022-11-20T05:21:07;8.23;;;4.72;;
21330;SDS011;10824;51.632;4.950;2022-11-20T05:23:35;14.77;;;5.25;;
21330;SDS011;10824;51.632;4.950;2022-11-20T05:26:03;10.15;;;4.43;;
21330;SDS011;10824;51.632;4.950;2022-11-20T05:28:31;13.52;;;5.30;;
21330;SDS011;10824;51.632;4.950;2022-11-20T05:33:52;9.32;;;5.80;;
21330;SDS011;10824;51.632;4.950;2022-11-20T05:36:19;8.48;;;4.35;;
21330;SDS011;10824;51.632;4.950;2022-11-20T05:38:47;10.68;;;5.60;;
21330;SDS011;10824;51.632;4.950;2022-11-20T05:41:17;8.48;;;5.35;;
21330;SDS011;10824;51.632;4.950;2022-11-20T05:43:46;5.90;;;3.63;;
21330;SDS011;10824;51.632;4.950;2022-11-20T05:46:15;9.38;;;3.85;;
21330;SDS011;10824;51.632;4.950;2022-11-20T05:48:50;9.00;;;4.32;;
21330;SDS011;10824;51.632;4.950;2022-11-20T05:51:17;11.23;;;4.05;;
21330;SDS011;10824;51.632;4.950;2022-11-20T05:53:45;10.27;;;4.38;;
21330;SDS011;10824;51.632;4.950;2022-11-20T05:56:18;10.18;;;5.45;;
21330;SDS011;10824;51.632;4.950;2022-11-20T05:58:46;10.50;;;4.80;;
21330;SDS011;10824;51.632;4.950;2022-11-20T06:01:21;9.57;;;5.20;;
21330;SDS011;10824;51.632;4.950;2022-11-20T06:03:50;9.32;;;5.63;;
21330;SDS011;10824;51.632;4.950;2022-11-20T06:06:18;11.40;;;4.75;;
21330;SDS011;10824;51.632;4.950;2022-11-20T06:08:45;12.77;;;5.05;;
21330;SDS011;10824;51.632;4.950;2022-11-20T06:11:13;9.68;;;4.40;;
21330;SDS011;10824;51.632;4.950;2022-11-20T06:13:41;10.02;;;4.57;;
21330;SDS011;10824;51.632;4.950;2022-11-20T06:16:08;9.93;;;4.50;;
21330;SDS011;10824;51.632;4.950;2022-11-20T06:18:36;8.13;;;4.32;;
21330;SDS011;10824;51.632;4.950;2022-11-20T06:21:04;10.27;;;4.82;;
21330;SDS011;10824;51.632;4.950;2022-11-20T06:23:40;9.40;;;4.15;;
21330;SDS011;10824;51.632;4.950;2022-11-20T06:26:08;9.90;;;5.10;;
21330;SDS011;10824;51.632;4.950;2022-11-20T06:28:37;10.00;;;4.55;;
21330;SDS011;10824;51.632;4.950;2022-11-20T06:31:06;8.05;;;4.55;;
21330;SDS011;10824;51.632;4.950;2022-11-20T06:33:36;9.45;;;5.65;;
21330;SDS011;10824;51.632;4.950;2022-11-20T06:36:03;13.02;;;5.65;;
21330;SDS011;10824;51.632;4.950;2022-11-20T06:38:36;7.35;;;3.67;;
21330;SDS011;10824;51.632;4.950;2022-11-20T06:41:04;10.82;;;4.65;;
21330;SDS011;10824;51.632;4.950;2022-11-20T06:43:32;7.40;;;4.10;;
21330;SDS011;10824;51.632;4.950;2022-11-20T06:45:59;11.60;;;5.10;;
21330;SDS011;10824;51.632;4.950;2022-11-20T06:48:27;9.77;;;4.43;;
21330;SDS011;10824;51.632;4.950;2022-11-20T06:50:55;10.57;;;4.43;;
21330;SDS011;10824;51.632;4.950;2022-11-20T06:53:22;12.10;;;5.35;;
21330;SDS011;10824;51.632;4.950;2022-11-20T06:55:50;8.32;;;5.50;;
21330;SDS011;10824;51.632;4.950;2022-11-20T06:58:17;10.65;;;4.97;;
21330;SDS011;10824;51.632;4.950;2022-11-20T07:00:45;13.98;;;5.45;;
21330;SDS011;10824;51.632;4.950;2022-11-20T07:03:12;11.18;;;4.50;;
21330;SDS011;10824;51.632;4.950;2022-11-20T07:05:39;8.98;;;4.65;;
21330;SDS011;10824;51.632;4.950;2022-11-20T07:08:06;8.65;;;4.30;;
21330;SDS011;10824;51.632;4.950;2022-11-20T07:10:34;8.80;;;4.93;;
21330;SDS011;10824;51.632;4.950;2022-11-20T07:13:03;8.73;;;3.92;;
21330;SDS011;10824;51.632;4.950;2022-11-20T07:15:30;11.15;;;4.50;;
21330;SDS011;10824;51.632;4.950;2022-11-20T07:18:01;10.07;;;5.38;;
21330;SDS011;10824;51.632;4.950;2022-11-20T07:20:31;7.57;;;4.30;;
21330;SDS011;10824;51.632;4.950;2022-11-20T07:22:58;10.20;;;4.13;;
21330;SDS011;10824;51.632;4.950;2022-11-20T07:25:25;11.05;;;5.57;;
21330;SDS011;10824;51.632;4.950;2022-11-20T07:27:59;8.77;;;5.00;;
21330;SDS011;10824;51.632;4.950;2022-11-20T07:30:28;8.32;;;5.65;;
21330;SDS011;10824;51.632;4.950;2022-11-20T07:32:56;9.93;;;5.15;;
21330;SDS011;10824;51.632;4.950;2022-11-20T07:35:24;9.32;;;4.60;;
21330;SDS011;10824;51.632;4.950;2022-11-20T07:37:51;9.10;;;5.20;;
21330;SDS011;10824;51.632;4.950;2022-11-20T07:40:18;10.25;;;5.53;;
21330;SDS011;10824;51.632;4.950;2022-11-20T07:42:53;11.13;;;4.75;;
21330;SDS011;10824;51.632;4.950;2022-11-20T07:45:22;7.25;;;4.47;;
21330;SDS011;10824;51.632;4.950;2022-11-20T07:47:50;11.18;;;4.82;;
21330;SDS011;10824;51.632;4.950;2022-11-20T07:50:18;11.98;;;4.47;;
21330;SDS011;10824;51.632;4.950;2022-11-20T07:52:45;12.23;;;3.60;;
21330;SDS011;10824;51.632;4.950;2022-11-20T07:55:13;10.98;;;5.30;;
21330;SDS011;10824;51.632;4.950;2022-11-20T07:57:40;11.88;;;5.00;;
21330;SDS011;10824;51.632;4.950;2022-11-20T08:00:08;7.40;;;4.43;;
21330;SDS011;10824;51.632;4.950;2022-11-20T08:02:40;7.10;;;3.13;;
21330;SDS011;10824;51.632;4.950;2022-11-20T08:05:08;11.63;;;4.78;;
21330;SDS011;10824;51.632;4.950;2022-11-20T08:07:36;13.70;;;4.75;;
21330;SDS011;10824;51.632;4.950;2022-11-20T08:10:08;7.90;;;4.45;;
21330;SDS011;10824;51.632;4.950;2022-11-20T08:12:42;8.55;;;5.80;;
21330;SDS011;10824;51.632;4.950;2022-11-20T08:15:29;11.70;;;5.75;;
21330;SDS011;10824;51.632;4.950;2022-11-20T08:18:04;8.10;;;4.47;;
21330;SDS011;10824;51.632;4.950;2022-11-20T08:21:00;9.23;;;4.50;;
21330;SDS011;10824;51.632;4.950;2022-11-20T08:23:28;13.33;;;5.77;;
21330;SDS011;10824;51.632;4.950;2022-11-20T08:25:55;9.25;;;4.60;;
21330;SDS011;10824;51.632;4.950;2022-11-20T08:28:22;17.20;;;7.65;;
21330;SDS011;10824;51.632;4.950;2022-11-20T08:30:49;12.02;;;5.97;;
21330;SDS011;10824;51.632;4.950;2022-11-20T08:33:17;10.13;;;6.18;;
21330;SDS011;10824;51.632;4.950;2022-11-20T08:35:45;14.70;;;6.10;;
21330;SDS011;10824;51.632;4.950;2022-11-20T08:38:12;14.95;;;6.45;;
21330;SDS011;10824;51.632;4.950;2022-11-20T08:40:39;11.10;;;5.80;;
21330;SDS011;10824;51.632;4.950;2022-11-20T08:43:06;9.35;;;6.03;;
21330;SDS011;10824;51.632;4.950;2022-11-20T08:45:33;13.73;;;6.85;;
21330;SDS011;10824;51.632;4.950;2022-11-20T08:48:01;12.40;;;6.28;;
21330;SDS011;10824;51.632;4.950;2022-11-20T08:50:29;9.60;;;6.05;;
21330;SDS011;10824;51.632;4.950;2022-11-20T08:53:03;10.85;;;4.65;;
21330;SDS011;10824;51.632;4.950;2022-11-20T08:57:57;10.40;;;5.82;;
21330;SDS011;10824;51.632;4.950;2022-11-20T09:00:24;12.18;;;6.53;;
21330;SDS011;10824;51.632;4.950;2022-11-20T09:02:51;10.43;;;6.30;;
21330;SDS011;10824;51.632;4.950;2022-11-20T09:05:18;8.68;;;5.35;;
21330;SDS011;10824;51.632;4.950;2022-11-20T09:07:45;17.92;;;7.28;;
21330;SDS011;10824;51.632;4.950;2022-11-20T09:10:12;16.42;;;8.93;;
21330;SDS011;10824;51.632;4.950;2022-11-20T09:12:50;18.67;;;8.93;;
21330;SDS011;10824;51.632;4.950;2022-11-20T09:15:18;13.00;;;6.78;;
21330;SDS011;10824;51.632;4.950;2022-11-20T09:17:55;15.02;;;9.00;;
21330;SDS011;10824;51.632;4.950;2022-11-20T09:20:24;12.60;;;8.15;;
21330;SDS011;10824;51.632;4.950;2022-11-20T09:22:52;14.85;;;7.07;;
21330;SDS011;10824;51.632;4.950;2022-11-20T09:25:19;10.93;;;6.25;;
21330;SDS011;10824;51.632;4.950;2022-11-20T09:27:46;14.30;;;6.28;;
21330;SDS011;10824;51.632;4.950;2022-11-20T09:30:13;9.93;;;5.25;;
21330;SDS011;10824;51.632;4.950;2022-11-20T09:32:44;15.48;;;7.53;;
21330;SDS011;10824;51.632;4.950;2022-11-20T09:35:11;13.68;;;5.20;;
21330;SDS011;10824;51.632;4.950;2022-11-20T09:37:38;10.65;;;6.78;;
21330;SDS011;10824;51.632;4.950;2022-11-20T09:40:05;13.23;;;6.75;;
21330;SDS011;10824;51.632;4.950;2022-11-20T09:51:31;11.02;;;5.70;;
21330;SDS011;10824;51.632;4.950;2022-11-20T09:57:01;13.52;;;7.53;;
21330;SDS011;10824;51.632;4.950;2022-11-20T10:04:55;10.57;;;5.30;;
21330;SDS011;10824;51.632;4.950;2022-11-20T10:10:44;15.13;;;7.30;;
21330;SDS011;10824;51.632;4.950;2022-11-20T10:26:25;22.48;;;7.50;;
21330;SDS011;10824;51.632;4.950;2022-11-20T10:29:12;15.45;;;7.75;;
21330;SDS011;10824;51.632;4.950;2022-11-20T10:31:50;14.85;;;7.70;;
21330;SDS011;10824;51.632;4.950;2022-11-20T10:37:23;21.48;;;9.25;;
21330;SDS011;10824;51.632;4.950;2022-11-20T10:39:59;17.25;;;8.20;;
21330;SDS011;10824;51.632;4.950;2022-11-20T10:42:37;12.85;;;6.78;;
21330;SDS011;10824;51.632;4.950;2022-11-20T10:45:32;16.80;;;8.43;;
21330;SDS011;10824;51.632;4.950;2022-11-20T10:50:57;16.48;;;7.72;;
21330;SDS011;10824;51.632;4.950;2022-11-20T10:56:35;26.45;;;9.73;;
21330;SDS011;10824;51.632;4.950;2022-11-20T11:01:54;16.25;;;9.65;;
21330;SDS011;10824;51.632;4.950;2022-11-20T11:04:28;18.58;;;9.50;;
21330;SDS011;10824;51.632;4.950;2022-11-20T11:06:58;19.40;;;9.00;;
21330;SDS011;10824;51.632;4.950;2022-11-20T11:09:41;24.13;;;7.97;;
21330;SDS011;10824;51.632;4.950;2022-11-20T11:12:12;19.27;;;7.93;;
21330;SDS011;10824;51.632;4.950;2022-11-20T11:14:44;17.55;;;9.80;;
21330;SDS011;10824;51.632;4.950;2022-11-20T11:17:20;14.23;;;8.40;;
21330;SDS011;10824;51.632;4.950;2022-11-20T11:20:00;21.38;;;9.38;;
21330;SDS011;10824;51.632;4.950;2022-11-20T11:22:29;35.13;;;13.45;;
21330;SDS011;10824;51.632;4.950;2022-11-20T11:24:58;22.92;;;10.70;;
21330;SDS011;10824;51.632;4.950;2022-11-20T11:27:25;25.05;;;12.50;;
21330;SDS011;10824;51.632;4.950;2022-11-20T11:30:14;17.42;;;9.77;;
21330;SDS011;10824;51.632;4.950;2022-11-20T11:32:42;23.30;;;10.73;;
21330;SDS011;10824;51.632;4.950;2022-11-20T11:35:20;26.27;;;11.50;;
21330;SDS011;10824;51.632;4.950;2022-11-20T11:37:49;24.23;;;10.63;;
21330;SDS011;10824;51.632;4.950;2022-11-20T11:40:18;25.75;;;11.15;;
21330;SDS011;10824;51.632;4.950;2022-11-20T11:42:57;23.42;;;11.00;;
21330;SDS011;10824;51.632;4.950;2022-11-20T11:45:26;28.02;;;11.27;;
21330;SDS011;10824;51.632;4.950;2022-11-20T11:47:54;25.40;;;11.52;;
21330;SDS011;10824;51.632;4.950;2022-11-20T11:50:25;27.48;;;11.73;;
21330;SDS011;10824;51.632;4.950;2022-11-20T11:53:12;24.45;;;11.52;;
21330;SDS011;10824;51.632;4.950;2022-11-20T11:55:45;23.42;;;10.80;;
21330;SDS011;10824;51.632;4.950;2022-11-20T11:58:43;20.83;;;10.27;;
21330;SDS011;10824;51.632;4.950;2022-11-20T12:03:54;32.72;;;13.23;;
21330;SDS011;10824;51.632;4.950;2022-11-20T12:06:27;26.00;;;11.65;;
21330;SDS011;10824;51.632;4.950;2022-11-20T12:09:08;25.65;;;11.05;;
21330;SDS011;10824;51.632;4.950;2022-11-20T12:11:44;27.25;;;11.15;;
21330;SDS011;10824;51.632;4.950;2022-11-20T12:17:05;25.35;;;12.63;;
21330;SDS011;10824;51.632;4.950;2022-11-20T12:19:36;27.23;;;12.55;;
21330;SDS011;10824;51.632;4.950;2022-11-20T12:30:14;28.15;;;12.45;;
21330;SDS011;10824;51.632;4.950;2022-11-20T12:35:44;25.77;;;11.23;;
21330;SDS011;10824;51.632;4.950;2022-11-20T12:38:55;35.13;;;12.82;;
21330;SDS011;10824;51.632;4.950;2022-11-20T12:45:05;29.20;;;11.90;;
21330;SDS011;10824;51.632;4.950;2022-11-20T13:01:52;25.45;;;11.30;;
21330;SDS011;10824;51.632;4.950;2022-11-20T13:04:39;25.40;;;9.27;;
21330;SDS011;10824;51.632;4.950;2022-11-20T13:07:09;24.15;;;11.88;;
21330;SDS011;10824;51.632;4.950;2022-11-20T13:09:43;22.73;;;10.45;;
21330;SDS011;10824;51.632;4.950;2022-11-20T13:15:04;22.23;;;11.45;;
21330;SDS011;10824;51.632;4.950;2022-11-20T13:17:58;31.30;;;13.30;;
21330;SDS011;10824;51.632;4.950;2022-11-20T13:20:28;24.70;;;10.93;;
21330;SDS011;10824;51.632;4.950;2022-11-20T13:22:57;27.83;;;13.52;;
21330;SDS011;10824;51.632;4.950;2022-11-20T13:25:35;22.02;;;10.48;;
21330;SDS011;10824;51.632;4.950;2022-11-20T13:28:05;29.60;;;11.15;;
21330;SDS011;10824;51.632;4.950;2022-11-20T13:30:54;25.92;;;10.52;;
21330;SDS011;10824;51.632;4.950;2022-11-20T13:33:35;23.13;;;10.10;;
21330;SDS011;10824;51.632;4.950;2022-11-20T13:38:42;26.80;;;10.80;;
21330;SDS011;10824;51.632;4.950;2022-11-20T13:41:22;25.58;;;10.10;;
21330;SDS011;10824;51.632;4.950;2022-11-20T13:44:08;27.98;;;11.80;;
21330;SDS011;10824;51.632;4.950;2022-11-20T13:46:37;24.23;;;11.02;;
21330;SDS011;10824;51.632;4.950;2022-11-20T13:49:14;37.67;;;14.57;;
21330;SDS011;10824;51.632;4.950;2022-11-20T13:51:50;22.58;;;9.25;;
21330;SDS011;10824;51.632;4.950;2022-11-20T14:00:14;26.17;;;9.55;;
21330;SDS011;10824;51.632;4.950;2022-11-20T14:02:52;30.05;;;10.80;;
21330;SDS011;10824;51.632;4.950;2022-11-20T14:05:36;25.83;;;10.48;;
21330;SDS011;10824;51.632;4.950;2022-11-20T14:08:06;29.70;;;10.77;;
21330;SDS011;10824;51.632;4.950;2022-11-20T14:10:42;31.65;;;10.43;;
21330;SDS011;10824;51.632;4.950;2022-11-20T14:13:10;27.90;;;11.70;;
21330;SDS011;10824;51.632;4.950;2022-11-20T14:15:43;28.83;;;13.10;;
21330;SDS011;10824;51.632;4.950;2022-11-20T14:18:15;23.58;;;9.05;;
21330;SDS011;10824;51.632;4.950;2022-11-20T14:20:48;26.83;;;10.93;;
21330;SDS011;10824;51.632;4.950;2022-11-20T14:23:23;32.47;;;10.75;;
21330;SDS011;10824;51.632;4.950;2022-11-20T14:25:55;30.15;;;12.70;;
21330;SDS011;10824;51.632;4.950;2022-11-20T14:28:27;21.52;;;10.48;;
21330;SDS011;10824;51.632;4.950;2022-11-20T14:30:56;27.20;;;11.95;;
21330;SDS011;10824;51.632;4.950;2022-11-20T14:33:25;22.95;;;9.90;;
21330;SDS011;10824;51.632;4.950;2022-11-20T14:35:55;21.15;;;10.18;;
21330;SDS011;10824;51.632;4.950;2022-11-20T14:38:25;26.10;;;9.18;;
21330;SDS011;10824;51.632;4.950;2022-11-20T14:40:53;31.63;;;10.18;;
21330;SDS011;10824;51.632;4.950;2022-11-20T14:43:25;19.50;;;9.27;;
21330;SDS011;10824;51.632;4.950;2022-11-20T14:48:30;21.85;;;10.23;;
21330;SDS011;10824;51.632;4.950;2022-11-20T14:51:08;28.63;;;12.88;;
21330;SDS011;10824;51.632;4.950;2022-11-20T14:53:36;32.83;;;10.23;;
21330;SDS011;10824;51.632;4.950;2022-11-20T14:56:05;27.85;;;9.77;;
21330;SDS011;10824;51.632;4.950;2022-11-20T14:58:32;27.23;;;10.75;;
21330;SDS011;10824;51.632;4.950;2022-11-20T15:01:01;23.70;;;9.30;;
21330;SDS011;10824;51.632;4.950;2022-11-20T15:03:31;20.23;;;8.95;;
21330;SDS011;10824;51.632;4.950;2022-11-20T15:05:58;24.75;;;10.60;;
21330;SDS011;10824;51.632;4.950;2022-11-20T15:08:26;18.13;;;9.68;;
21330;SDS011;10824;51.632;4.950;2022-11-20T15:11:01;27.35;;;11.02;;
21330;SDS011;10824;51.632;4.950;2022-11-20T15:13:38;24.52;;;9.00;;
21330;SDS011;10824;51.632;4.950;2022-11-20T15:16:14;19.98;;;8.65;;
21330;SDS011;10824;51.632;4.950;2022-11-20T15:18:47;39.17;;;9.18;;
21330;SDS011;10824;51.632;4.950;2022-11-20T15:21:18;29.90;;;11.23;;
21330;SDS011;10824;51.632;4.950;2022-11-20T15:23:47;27.38;;;11.35;;
21330;SDS011;10824;51.632;4.950;2022-11-20T15:26:17;25.38;;;9.77;;
21330;SDS011;10824;51.632;4.950;2022-11-20T15:28:52;17.88;;;8.93;;
21330;SDS011;10824;51.632;4.950;2022-11-20T15:31:21;24.10;;;11.15;;
21330;SDS011;10824;51.632;4.950;2022-11-20T15:33:50;25.75;;;9.30;;
21330;SDS011;10824;51.632;4.950;2022-11-20T15:36:17;29.60;;;8.60;;
21330;SDS011;10824;51.632;4.950;2022-11-20T15:38:44;17.85;;;8.85;;
21330;SDS011;10824;51.632;4.950;2022-11-20T15:41:12;18.15;;;8.88;;
21330;SDS011;10824;51.632;4.950;2022-11-20T15:43:40;21.80;;;9.52;;
21330;SDS011;10824;51.632;4.950;2022-11-20T15:46:13;16.48;;;8.90;;
21330;SDS011;10824;51.632;4.950;2022-11-20T15:48:45;15.65;;;7.72;;
21330;SDS011;10824;51.632;4.950;2022-11-20T15:54:17;20.73;;;8.35;;
21330;SDS011;10824;51.632;4.950;2022-11-20T15:56:47;16.52;;;7.88;;
21330;SDS011;10824;51.632;4.950;2022-11-20T15:59:15;22.15;;;9.73;;
21330;SDS011;10824;51.632;4.950;2022-11-20T16:01:43;15.88;;;8.27;;
21330;SDS011;10824;51.632;4.950;2022-11-20T16:04:11;14.48;;;8.05;;
21330;SDS011;10824;51.632;4.950;2022-11-20T16:06:43;13.57;;;7.57;;
21330;SDS011;10824;51.632;4.950;2022-11-20T16:09:10;17.15;;;7.20;;
21330;SDS011;10824;51.632;4.950;2022-11-20T16:11:37;14.05;;;6.70;;
21330;SDS011;10824;51.632;4.950;2022-11-20T16:14:05;15.25;;;7.55;;
21330;SDS011;10824;51.632;4.950;2022-11-20T16:16:51;13.68;;;6.40;;
21330;SDS011;10824;51.632;4.950;2022-11-20T16:19:18;10.95;;;4.63;;
21330;SDS011;10824;51.632;4.950;2022-11-20T16:21:46;12.88;;;5.53;;
21330;SDS011;10824;51.632;4.950;2022-11-20T16:24:13;9.10;;;4.97;;
21330;SDS011;10824;51.632;4.950;2022-11-20T16:26:41;10.90;;;5.57;;
21330;SDS011;10824;51.632;4.950;2022-11-20T16:29:08;6.90;;;3.63;;
21330;SDS011;10824;51.632;4.950;2022-11-20T16:31:36;11.52;;;3.25;;
21330;SDS011;10824;51.632;4.950;2022-11-20T16:34:06;8.38;;;4.40;;
21330;SDS011;10824;51.632;4.950;2022-11-20T16:36:48;5.03;;;2.97;;
21330;SDS011;10824;51.632;4.950;2022-11-20T16:39:15;6.00;;;3.25;;
21330;SDS011;10824;51.632;4.950;2022-11-20T16:41:49;4.30;;;2.80;;
21330;SDS011;10824;51.632;4.950;2022-11-20T16:44:15;5.45;;;2.63;;